createdAt,value
2023-08-08T00:01:31.262Z,13.63
2023-08-08T00:03:57.956Z,13.67
2023-08-08T00:06:24.468Z,13.66
2023-08-08T00:08:50.898Z,13.67
2023-08-08T00:11:17.330Z,13.67
2023-08-08T00:13:43.978Z,13.69
2023-08-08T00:16:11.029Z,13.69
2023-08-08T00:18:37.499Z,13.69
2023-08-08T00:21:03.980Z,13.70
2023-08-08T00:23:30.499Z,13.73
2023-08-08T00:25:57.135Z,13.77
2023-08-08T00:28:23.642Z,13.83
2023-08-08T00:30:50.296Z,13.87
2023-08-08T00:33:17.722Z,13.88
2023-08-08T00:35:45.789Z,13.86
2023-08-08T00:38:12.369Z,13.87
2023-08-08T00:40:38.821Z,13.88
2023-08-08T00:43:05.326Z,13.88
2023-08-08T00:45:32.005Z,13.87
2023-08-08T00:47:58.637Z,13.88
2023-08-08T00:50:25.261Z,13.89
2023-08-08T00:52:51.998Z,13.91
2023-08-08T00:55:18.683Z,13.94
2023-08-08T00:57:45.658Z,13.92
2023-08-08T01:00:12.875Z,13.87
2023-08-08T01:02:39.848Z,13.87
2023-08-08T01:05:07.634Z,13.87
2023-08-08T01:07:44.917Z,13.87
2023-08-08T01:10:23.614Z,13.87
2023-08-08T01:12:54.601Z,13.89
2023-08-08T01:15:22.514Z,13.91
2023-08-08T01:17:49.475Z,13.90
2023-08-08T01:20:18.030Z,13.92
2023-08-08T01:23:13.938Z,13.92
2023-08-08T01:25:42.006Z,13.91
2023-08-08T01:28:09.135Z,13.90
2023-08-08T01:30:35.805Z,13.91
2023-08-08T01:33:03.249Z,13.93
2023-08-08T01:35:33.343Z,13.95
2023-08-08T01:38:24.912Z,13.97
2023-08-08T01:40:51.872Z,14.00
2023-08-08T01:43:19.603Z,13.97
2023-08-08T01:45:46.246Z,13.97
2023-08-08T01:48:12.912Z,13.97
2023-08-08T01:50:39.576Z,13.91
2023-08-08T01:53:06.043Z,13.90
2023-08-08T01:55:32.779Z,13.90
2023-08-08T01:57:59.690Z,13.92
2023-08-08T02:00:26.284Z,13.90
2023-08-08T02:02:53.382Z,13.91
2023-08-08T02:05:20.062Z,13.90
2023-08-08T02:07:46.569Z,13.87
2023-08-08T02:10:12.994Z,13.87
2023-08-08T02:12:39.533Z,13.86
2023-08-08T02:15:07.015Z,13.85
2023-08-08T02:17:33.623Z,13.85
2023-08-08T02:20:00.195Z,13.85
2023-08-08T02:22:26.747Z,13.82
2023-08-08T02:24:53.297Z,13.81
2023-08-08T02:27:19.794Z,13.82
2023-08-08T02:29:46.226Z,13.81
2023-08-08T02:32:14.275Z,13.81
2023-08-08T02:34:40.750Z,13.82
2023-08-08T02:37:07.269Z,13.80
2023-08-08T02:39:33.717Z,13.79
2023-08-08T02:42:00.424Z,13.80
2023-08-08T02:44:27.085Z,13.82
2023-08-08T02:46:53.552Z,13.84
2023-08-08T02:49:19.940Z,13.83
2023-08-08T02:51:46.356Z,13.82
2023-08-08T02:54:12.797Z,13.81
2023-08-08T02:56:39.225Z,13.80
2023-08-08T02:59:05.623Z,13.79
2023-08-08T03:01:32.286Z,13.77
2023-08-08T03:03:59.296Z,13.77
2023-08-08T03:06:26.283Z,13.76
2023-08-08T03:08:52.776Z,13.76
2023-08-08T03:11:19.312Z,13.73
2023-08-08T03:13:45.823Z,13.70
2023-08-08T03:16:12.263Z,13.68
2023-08-08T03:18:38.999Z,13.67
2023-08-08T03:21:05.621Z,13.66
2023-08-08T03:23:32.285Z,13.67
2023-08-08T03:25:58.727Z,13.68
2023-08-08T03:28:25.709Z,13.65
2023-08-08T03:30:52.212Z,13.64
2023-08-08T03:33:18.657Z,13.65
2023-08-08T03:35:45.160Z,13.64
2023-08-08T03:38:11.717Z,13.64
2023-08-08T03:40:38.442Z,13.64
2023-08-08T03:43:05.184Z,13.65
2023-08-08T03:45:31.703Z,13.66
2023-08-08T03:47:58.134Z,13.67
2023-08-08T03:50:24.838Z,13.69
2023-08-08T03:52:51.263Z,13.68
2023-08-08T03:55:17.784Z,13.70
2023-08-08T03:57:44.665Z,13.67
2023-08-08T04:00:12.585Z,13.64
2023-08-08T04:02:39.564Z,13.64
2023-08-08T04:05:06.623Z,13.65
2023-08-08T04:07:33.090Z,13.63
2023-08-08T04:09:59.587Z,13.64
2023-08-08T04:12:26.113Z,13.59
2023-08-08T04:14:52.634Z,13.57
2023-08-08T04:17:21.541Z,13.58
2023-08-08T04:19:48.963Z,13.54
2023-08-08T04:22:16.845Z,13.49
2023-08-08T04:24:43.507Z,13.46
2023-08-08T04:27:10.126Z,13.42
2023-08-08T04:29:37.359Z,13.39
2023-08-08T04:32:04.247Z,13.37
2023-08-08T04:34:30.702Z,13.37
2023-08-08T04:36:57.150Z,13.37
2023-08-08T04:39:23.613Z,13.37
2023-08-08T04:41:50.072Z,13.39
2023-08-08T04:44:16.537Z,13.45
2023-08-08T04:46:43.007Z,13.48
2023-08-08T04:49:09.541Z,13.52
2023-08-08T04:51:36.110Z,13.60
2023-08-08T04:54:02.655Z,13.64
2023-08-08T04:56:30.583Z,13.70
2023-08-08T04:58:57.632Z,13.75
2023-08-08T05:01:24.073Z,13.76
2023-08-08T05:03:52.471Z,13.77
2023-08-08T05:06:20.545Z,13.83
2023-08-08T05:08:46.987Z,13.91
2023-08-08T05:11:13.657Z,13.97
2023-08-08T05:13:40.224Z,14.05
2023-08-08T05:16:07.474Z,14.12
2023-08-08T05:18:33.976Z,14.14
2023-08-08T05:21:00.525Z,14.25
2023-08-08T05:23:27.139Z,14.28
2023-08-08T05:25:53.557Z,14.26
2023-08-08T05:28:20.073Z,14.22
2023-08-08T05:30:46.617Z,14.33
2023-08-08T05:33:13.097Z,15.98
2023-08-08T05:35:39.528Z,17.29
2023-08-08T05:38:06.531Z,17.62
2023-08-08T05:40:36.276Z,17.95
2023-08-08T05:43:04.153Z,17.73
2023-08-08T05:45:30.702Z,17.48
2023-08-08T05:47:57.569Z,17.99
2023-08-08T05:50:24.218Z,17.98
2023-08-08T05:52:50.700Z,17.93
2023-08-08T05:55:17.333Z,17.80
2023-08-08T05:57:43.910Z,18.65
2023-08-08T06:00:12.475Z,19.46
2023-08-08T06:02:39.360Z,19.04
2023-08-08T06:05:06.501Z,18.91
2023-08-08T06:07:33.163Z,19.60
2023-08-08T06:09:59.655Z,19.77
2023-08-08T06:12:26.459Z,20.59
2023-08-08T06:14:52.883Z,23.63
2023-08-08T06:17:19.412Z,26.19
2023-08-08T06:19:46.396Z,27.79
2023-08-08T06:22:13.131Z,28.83
2023-08-08T06:24:40.313Z,29.42
2023-08-08T06:27:06.966Z,29.88
2023-08-08T06:29:33.484Z,30.24
2023-08-08T06:32:00.414Z,30.60
2023-08-08T06:34:27.266Z,30.60
2023-08-08T06:36:53.712Z,30.18
2023-08-08T06:39:22.329Z,29.56
2023-08-08T06:41:49.183Z,30.28
2023-08-08T06:44:15.791Z,30.69
2023-08-08T06:46:42.376Z,30.72
2023-08-08T06:49:10.045Z,31.45
2023-08-08T06:51:36.684Z,31.73
2023-08-08T06:54:04.129Z,31.71
2023-08-08T06:56:30.678Z,30.64
2023-08-08T06:58:57.130Z,27.60
2023-08-08T07:01:23.661Z,25.59
2023-08-08T07:03:50.195Z,24.16
2023-08-08T07:06:18.958Z,22.68
2023-08-08T07:08:45.467Z,21.89
2023-08-08T07:11:12.141Z,21.29
2023-08-08T07:13:38.971Z,20.82
2023-08-08T07:16:05.666Z,20.43
2023-08-08T07:18:32.264Z,20.04
2023-08-08T07:20:58.886Z,19.70
2023-08-08T07:23:25.767Z,19.61
2023-08-08T07:25:52.484Z,19.26
2023-08-08T07:28:19.260Z,19.00
2023-08-08T07:30:45.896Z,18.94
2023-08-08T07:33:12.441Z,19.07
2023-08-08T07:35:39.062Z,19.40
2023-08-08T07:38:05.538Z,21.11
2023-08-08T07:40:32.257Z,23.21
2023-08-08T07:42:58.710Z,24.42
2023-08-08T07:45:25.279Z,23.87
2023-08-08T07:47:51.762Z,23.68
2023-08-08T07:50:18.234Z,24.89
2023-08-08T07:52:44.723Z,24.72
2023-08-08T07:55:11.309Z,24.73
2023-08-08T07:57:37.803Z,25.52
2023-08-08T08:00:14.962Z,25.70
2023-08-08T08:02:43.746Z,24.78
2023-08-08T08:05:10.737Z,24.51
2023-08-08T08:07:38.843Z,24.59
2023-08-08T08:10:08.633Z,24.28
2023-08-08T08:12:36.098Z,24.19
2023-08-08T08:15:03.460Z,24.90
2023-08-08T08:17:30.025Z,25.65
2023-08-08T08:19:56.678Z,25.33
2023-08-08T08:22:23.223Z,24.37
2023-08-08T08:24:49.839Z,23.80
2023-08-08T08:27:16.506Z,23.90
2023-08-08T08:29:43.019Z,23.92
2023-08-08T08:32:09.940Z,23.86
2023-08-08T08:34:36.400Z,23.97
2023-08-08T08:37:03.326Z,24.65
2023-08-08T08:39:29.990Z,25.03
2023-08-08T08:42:03.029Z,25.31
2023-08-08T08:44:32.092Z,24.73
2023-08-08T08:47:02.597Z,24.22
2023-08-08T08:49:31.866Z,23.92
2023-08-08T08:52:06.078Z,23.98
2023-08-08T08:54:34.239Z,23.63
2023-08-08T08:57:01.231Z,22.99
2023-08-08T08:59:27.926Z,22.81
2023-08-08T09:01:54.586Z,22.57
2023-08-08T09:04:22.620Z,22.58
2023-08-08T09:06:50.981Z,22.52
2023-08-08T09:09:18.369Z,22.32
2023-08-08T09:11:48.493Z,22.08
2023-08-08T09:14:20.272Z,21.78
2023-08-08T09:16:48.153Z,21.46
2023-08-08T09:19:16.025Z,21.21
2023-08-08T09:21:42.487Z,21.37
2023-08-08T09:24:09.101Z,22.12
2023-08-08T09:26:35.902Z,22.29
2023-08-08T09:29:03.779Z,22.32
2023-08-08T09:31:31.299Z,22.76
2023-08-08T09:33:59.767Z,22.90
2023-08-08T09:36:26.992Z,22.65
2023-08-08T09:38:57.542Z,22.48
2023-08-08T09:41:24.681Z,22.94
2023-08-08T09:43:53.141Z,23.18
2023-08-08T09:46:20.649Z,23.45
2023-08-08T09:48:47.625Z,23.14
2023-08-08T09:51:14.658Z,22.52
2023-08-08T09:53:41.979Z,22.09
2023-08-08T09:56:09.279Z,22.52
2023-08-08T09:58:35.731Z,22.21
2023-08-08T10:01:02.236Z,21.81
2023-08-08T10:03:29.654Z,21.93
2023-08-08T10:05:56.136Z,22.37
2023-08-08T10:08:23.062Z,22.56
2023-08-08T10:10:51.612Z,22.58
2023-08-08T10:13:27.372Z,22.48
2023-08-08T10:15:55.209Z,22.81
2023-08-08T10:18:25.685Z,23.16
2023-08-08T10:20:54.497Z,23.21
2023-08-08T10:23:21.772Z,22.91
2023-08-08T10:25:51.157Z,22.61
2023-08-08T10:28:26.703Z,22.66
2023-08-08T10:30:59.354Z,22.58
2023-08-08T10:33:43.057Z,22.57
2023-08-08T10:36:10.770Z,22.32
2023-08-08T10:38:44.977Z,22.03
2023-08-08T10:41:16.968Z,22.00
2023-08-08T10:43:54.965Z,21.81
2023-08-08T10:46:42.624Z,21.60
2023-08-08T10:49:09.244Z,21.50
2023-08-08T10:51:45.653Z,21.70
2023-08-08T10:54:30.285Z,22.00
2023-08-08T10:56:59.007Z,22.08
2023-08-08T10:59:37.728Z,22.08
2023-08-08T11:02:05.112Z,22.19
2023-08-08T11:04:33.654Z,22.22
2023-08-08T11:07:00.319Z,22.12
2023-08-08T11:09:27.456Z,22.23
2023-08-08T11:11:54.145Z,22.13
2023-08-08T11:14:22.650Z,22.10
2023-08-08T11:16:51.252Z,22.02
2023-08-08T11:19:22.021Z,21.82
2023-08-08T11:21:49.348Z,22.11
2023-08-08T11:24:16.851Z,22.19
2023-08-08T11:26:46.444Z,22.25
2023-08-08T11:29:13.145Z,22.30
2023-08-08T11:31:40.291Z,22.30
2023-08-08T11:34:07.233Z,22.17
2023-08-08T11:36:35.533Z,21.78
2023-08-08T11:39:09.451Z,21.56
2023-08-08T11:41:37.730Z,21.58
2023-08-08T11:44:05.705Z,21.78
2023-08-08T11:46:32.195Z,21.95
2023-08-08T11:49:07.336Z,21.91
2023-08-08T11:51:35.557Z,22.18
2023-08-08T11:54:04.159Z,22.60
2023-08-08T11:56:34.315Z,22.44
2023-08-08T11:59:01.043Z,22.57
2023-08-08T12:01:27.996Z,22.87
2023-08-08T12:03:55.440Z,23.07
2023-08-08T12:06:22.703Z,22.78
2023-08-08T12:08:49.719Z,22.84
2023-08-08T12:11:17.013Z,22.67
2023-08-08T12:13:45.075Z,22.53
2023-08-08T12:16:17.330Z,22.45
2023-08-08T12:18:45.782Z,22.48
2023-08-08T12:21:12.398Z,22.75
2023-08-08T12:23:38.932Z,22.77
2023-08-08T12:26:06.535Z,23.14
2023-08-08T12:28:33.371Z,23.51
2023-08-08T12:31:00.411Z,23.05
2023-08-08T12:33:26.931Z,22.69
2023-08-08T12:35:53.955Z,22.31
2023-08-08T12:38:20.554Z,22.11
2023-08-08T12:40:47.225Z,22.05
2023-08-08T12:43:15.160Z,22.04
2023-08-08T12:45:41.683Z,22.03
2023-08-08T12:48:08.241Z,21.81
2023-08-08T12:50:34.755Z,21.84
2023-08-08T12:53:01.226Z,22.22
2023-08-08T12:55:27.666Z,22.44
2023-08-08T12:57:54.287Z,22.42
2023-08-08T13:00:20.828Z,22.23
2023-08-08T13:02:47.480Z,22.07
2023-08-08T13:05:14.034Z,21.93
2023-08-08T13:07:40.693Z,22.08
2023-08-08T13:10:07.652Z,22.06
2023-08-08T13:12:34.565Z,22.45
2023-08-08T13:15:01.080Z,22.78
2023-08-08T13:17:27.537Z,22.82
2023-08-08T13:19:54.168Z,22.89
2023-08-08T13:22:20.753Z,22.77
2023-08-08T13:24:47.370Z,22.84
2023-08-08T13:27:13.924Z,22.43
2023-08-08T13:29:40.497Z,22.42
2023-08-08T13:32:07.213Z,22.28
2023-08-08T13:34:33.759Z,22.25
2023-08-08T13:37:00.252Z,22.24
2023-08-08T13:39:26.748Z,22.16
2023-08-08T13:41:53.559Z,22.00
2023-08-08T13:44:20.245Z,21.91
2023-08-08T13:46:46.842Z,21.82
2023-08-08T13:49:13.708Z,21.69
2023-08-08T13:51:41.694Z,21.60
2023-08-08T13:54:09.259Z,21.70
2023-08-08T13:56:35.680Z,21.87
2023-08-08T13:59:02.389Z,21.91
2023-08-08T14:01:28.888Z,21.90
2023-08-08T14:03:55.422Z,21.76
2023-08-08T14:06:21.892Z,21.57
2023-08-08T14:08:49.659Z,21.49
2023-08-08T14:11:16.364Z,21.26
2023-08-08T14:13:42.774Z,21.33
2023-08-08T14:16:09.324Z,21.49
2023-08-08T14:18:35.974Z,21.64
2023-08-08T14:21:05.538Z,21.55
2023-08-08T14:23:32.535Z,21.52
2023-08-08T14:25:58.993Z,21.35
2023-08-08T14:28:26.749Z,21.37
2023-08-08T14:30:55.306Z,21.55
2023-08-08T14:33:21.888Z,21.90
2023-08-08T14:35:48.573Z,22.22
2023-08-08T14:38:15.009Z,22.11
2023-08-08T14:40:41.526Z,21.83
2023-08-08T14:43:11.325Z,21.74
2023-08-08T14:45:42.001Z,22.16
2023-08-08T14:48:08.551Z,22.47
2023-08-08T14:50:35.485Z,22.31
2023-08-08T14:53:02.044Z,22.16
2023-08-08T14:55:28.786Z,21.95
2023-08-08T14:57:55.226Z,21.88
2023-08-08T15:00:21.829Z,21.78
2023-08-08T15:02:48.328Z,21.67
2023-08-08T15:05:14.755Z,21.39
2023-08-08T15:07:41.888Z,21.44
2023-08-08T15:10:08.899Z,21.85
2023-08-08T15:12:36.213Z,22.19
2023-08-08T15:15:04.775Z,22.11
2023-08-08T15:17:31.357Z,21.89
2023-08-08T15:19:57.851Z,21.64
2023-08-08T15:22:24.432Z,21.66
2023-08-08T15:24:50.928Z,21.88
2023-08-08T15:27:17.517Z,21.91
2023-08-08T15:29:44.564Z,21.89
2023-08-08T15:32:11.104Z,21.45
2023-08-08T15:34:38.332Z,21.44
2023-08-08T15:37:05.046Z,21.57
2023-08-08T15:39:31.475Z,21.41
2023-08-08T15:41:57.942Z,21.23
2023-08-08T15:44:24.431Z,21.07
2023-08-08T15:46:50.930Z,20.95
2023-08-08T15:49:17.435Z,20.69
2023-08-08T15:51:43.915Z,20.58
2023-08-08T15:54:10.500Z,20.56
2023-08-08T15:56:39.200Z,20.63
2023-08-08T15:59:06.881Z,20.85
2023-08-08T16:01:33.843Z,20.91
2023-08-08T16:04:00.347Z,20.95
2023-08-08T16:06:27.423Z,20.81
2023-08-08T16:08:54.008Z,20.61
2023-08-08T16:11:20.425Z,20.58
2023-08-08T16:13:47.254Z,20.57
2023-08-08T16:16:13.869Z,20.51
2023-08-08T16:18:40.376Z,20.36
2023-08-08T16:21:06.865Z,20.30
2023-08-08T16:23:33.484Z,20.18
2023-08-08T16:26:00.035Z,20.15
2023-08-08T16:28:27.257Z,20.13
2023-08-08T16:30:53.991Z,19.98
2023-08-08T16:33:20.640Z,19.90
2023-08-08T16:35:47.129Z,19.87
2023-08-08T16:38:13.888Z,19.79
2023-08-08T16:40:40.323Z,19.84
2023-08-08T16:43:06.840Z,19.86
2023-08-08T16:45:33.374Z,19.81
2023-08-08T16:47:59.822Z,19.70
2023-08-08T16:50:26.236Z,19.59
2023-08-08T16:52:52.691Z,19.52
2023-08-08T16:55:19.128Z,19.56
2023-08-08T16:57:46.112Z,19.58
2023-08-08T17:00:15.475Z,19.51
2023-08-08T17:02:42.417Z,19.36
2023-08-08T17:05:09.196Z,19.24
2023-08-08T17:07:35.830Z,18.91
2023-08-08T17:10:02.418Z,18.80
2023-08-08T17:12:29.122Z,18.79
2023-08-08T17:14:55.795Z,18.68
2023-08-08T17:17:22.335Z,18.60
2023-08-08T17:19:48.832Z,18.41
2023-08-08T17:22:15.489Z,18.32
2023-08-08T17:24:42.148Z,18.33
2023-08-08T17:27:08.763Z,18.31
2023-08-08T17:29:35.301Z,18.28
2023-08-08T17:32:03.327Z,18.20
2023-08-08T17:34:30.106Z,18.14
2023-08-08T17:36:57.131Z,18.04
2023-08-08T17:39:23.717Z,17.92
2023-08-08T17:41:50.250Z,17.86
2023-08-08T17:44:16.723Z,17.76
2023-08-08T17:46:43.227Z,17.64
2023-08-08T17:49:09.767Z,17.61
2023-08-08T17:51:36.235Z,17.60
2023-08-08T17:54:02.713Z,17.48
2023-08-08T17:56:29.351Z,17.50
2023-08-08T17:58:55.928Z,17.56
2023-08-08T18:01:22.522Z,17.53
2023-08-08T18:03:49.641Z,17.51
2023-08-08T18:06:16.095Z,17.41
2023-08-08T18:08:42.832Z,17.28
2023-08-08T18:11:10.777Z,17.13
2023-08-08T18:13:37.466Z,17.06
2023-08-08T18:16:04.768Z,16.98
2023-08-08T18:18:31.349Z,16.92
2023-08-08T18:20:57.870Z,16.91
2023-08-08T18:23:24.423Z,16.83
2023-08-08T18:25:51.139Z,16.74
2023-08-08T18:28:19.096Z,16.67
2023-08-08T18:30:45.662Z,16.66
2023-08-08T18:33:13.398Z,16.68
2023-08-08T18:35:40.006Z,16.73
2023-08-08T18:38:06.600Z,16.80
2023-08-08T18:40:33.074Z,16.79
2023-08-08T18:43:00.270Z,16.72
2023-08-08T18:45:27.119Z,16.68
2023-08-08T18:47:53.689Z,16.61
2023-08-08T18:50:20.717Z,16.61
2023-08-08T18:52:48.295Z,16.59
2023-08-08T18:55:16.476Z,16.54
2023-08-08T18:57:43.037Z,16.50
2023-08-08T19:00:09.967Z,16.47
2023-08-08T19:02:36.493Z,16.41
2023-08-08T19:05:03.089Z,16.38
2023-08-08T19:07:29.627Z,16.38
2023-08-08T19:09:56.096Z,16.28
2023-08-08T19:12:22.716Z,16.30
2023-08-08T19:14:49.307Z,16.28
2023-08-08T19:17:15.760Z,16.28
2023-08-08T19:19:42.248Z,16.27
2023-08-08T19:22:08.704Z,16.25
2023-08-08T19:24:35.198Z,16.14
2023-08-08T19:27:01.668Z,15.99
2023-08-08T19:29:28.175Z,15.89
2023-08-08T19:31:54.838Z,15.82
2023-08-08T19:34:22.792Z,15.84
2023-08-08T19:36:49.341Z,15.86
2023-08-08T19:39:15.849Z,15.82
2023-08-08T19:41:42.327Z,15.69
2023-08-08T19:44:08.824Z,15.65
2023-08-08T19:46:35.668Z,15.63
2023-08-08T19:49:02.308Z,15.62
2023-08-08T19:51:29.161Z,15.46
2023-08-08T19:53:56.884Z,15.48
2023-08-08T19:56:24.961Z,15.46
2023-08-08T19:58:52.308Z,15.32
2023-08-08T20:01:18.970Z,15.23
2023-08-08T20:03:45.674Z,15.14
2023-08-08T20:06:12.360Z,14.99
2023-08-08T20:08:39.013Z,14.89
2023-08-08T20:11:06.980Z,14.88
2023-08-08T20:13:33.825Z,14.78
2023-08-08T20:16:00.436Z,14.67
2023-08-08T20:18:26.971Z,14.66
2023-08-08T20:20:53.921Z,14.73
2023-08-08T20:23:20.466Z,14.69
2023-08-08T20:25:47.141Z,14.74
2023-08-08T20:28:13.650Z,14.77
2023-08-08T20:30:41.978Z,14.69
2023-08-08T20:33:09.969Z,14.68
2023-08-08T20:35:36.452Z,14.62
2023-08-08T20:38:03.231Z,14.58
2023-08-08T20:40:29.714Z,14.53
2023-08-08T20:42:57.115Z,14.55
2023-08-08T20:45:23.654Z,14.65
2023-08-08T20:47:50.366Z,14.65
2023-08-08T20:50:16.842Z,14.62
2023-08-08T20:52:44.734Z,14.58
2023-08-08T20:55:11.376Z,14.60
2023-08-08T20:57:37.902Z,14.64
2023-08-08T21:00:04.983Z,14.69
2023-08-08T21:02:31.735Z,14.68
2023-08-08T21:04:58.208Z,14.70
2023-08-08T21:07:25.326Z,14.63
2023-08-08T21:09:52.019Z,14.57
2023-08-08T21:12:18.601Z,14.49
2023-08-08T21:14:45.098Z,14.48
2023-08-08T21:17:11.670Z,14.42
2023-08-08T21:19:38.242Z,14.42
2023-08-08T21:22:04.880Z,14.44
2023-08-08T21:24:32.471Z,14.38
2023-08-08T21:26:59.251Z,14.34
2023-08-08T21:29:25.794Z,14.21
2023-08-08T21:31:52.432Z,14.22
2023-08-08T21:34:18.877Z,14.16
2023-08-08T21:36:45.456Z,14.11
2023-08-08T21:39:11.861Z,14.05
2023-08-08T21:41:38.309Z,14.07
2023-08-08T21:44:05.239Z,14.07
2023-08-08T21:46:31.774Z,14.07
2023-08-08T21:48:59.404Z,14.13
2023-08-08T21:51:25.893Z,14.13
2023-08-08T21:53:52.395Z,14.18
2023-08-08T21:56:18.964Z,14.21
2023-08-08T21:58:45.407Z,14.28
2023-08-08T22:01:12.050Z,14.35
2023-08-08T22:03:38.502Z,14.36
2023-08-08T22:06:05.161Z,14.37
2023-08-08T22:08:31.920Z,14.43
2023-08-08T22:10:58.542Z,14.46
2023-08-08T22:13:25.144Z,14.47
2023-08-08T22:15:51.705Z,14.48
2023-08-08T22:18:19.824Z,14.49
2023-08-08T22:20:47.636Z,14.48
2023-08-08T22:23:20.450Z,14.44
2023-08-08T22:25:49.827Z,14.42
2023-08-08T22:28:17.224Z,14.38
2023-08-08T22:30:44.016Z,14.38
2023-08-08T22:33:10.641Z,14.38
2023-08-08T22:35:37.130Z,14.39
2023-08-08T22:38:03.954Z,14.44
2023-08-08T22:40:30.495Z,14.49
2023-08-08T22:42:57.251Z,14.52
2023-08-08T22:45:23.904Z,14.52
2023-08-08T22:47:50.395Z,14.49
2023-08-08T22:50:16.999Z,14.47
2023-08-08T22:52:43.520Z,14.43
2023-08-08T22:55:10.244Z,14.44
2023-08-08T22:57:37.271Z,14.46
2023-08-08T23:00:07.304Z,14.42
2023-08-08T23:02:34.954Z,14.43
2023-08-08T23:05:01.824Z,14.50
2023-08-08T23:07:28.353Z,14.51
2023-08-08T23:09:55.099Z,14.49
2023-08-08T23:12:25.587Z,14.49
2023-08-08T23:14:52.514Z,14.53
2023-08-08T23:17:26.868Z,14.54
2023-08-08T23:19:58.295Z,14.52
2023-08-08T23:22:27.303Z,14.47
2023-08-08T23:24:58.123Z,14.47
2023-08-08T23:27:25.615Z,14.47
2023-08-08T23:29:52.336Z,14.44
2023-08-08T23:32:36.947Z,14.47
2023-08-08T23:35:07.173Z,14.49
2023-08-08T23:37:35.286Z,14.51
2023-08-08T23:40:05.973Z,14.51
2023-08-08T23:42:43.996Z,14.44
2023-08-08T23:45:13.583Z,14.44
2023-08-08T23:47:47.982Z,14.43
2023-08-08T23:50:16.252Z,14.34
2023-08-08T23:52:54.475Z,14.30
2023-08-08T23:55:21.902Z,14.23
2023-08-08T23:57:48.689Z,14.14
